Time;durP1;ratioP1;P1;durP2;ratioP2;P2;SDS_P1;SDS_P2;PMS_P1;PMS_P2;Temp;Humidity;BMP_temperature;BMP_pressure;BME280_temperature;BME280_humidity;BME280_pressure;Samples;Min_cycle;Max_cycle;Signal;HPM_P1;HPM_P2
2022/08/25 00:01:42;;;;;;;3.40;3.13;;;;;;;;;;6216707;23;20278;-81
2022/08/25 00:04:12;;;;;;;8.43;7.63;;;;;;;;;;6190404;23;20173;-80
2022/08/25 00:06:42;;;;;;;8.00;3.90;;;;;;;;;;6189857;23;20175;-81
2022/08/25 00:09:11;;;;;;;4.50;2.80;;;;;;;;;;6190171;23;20189;-80
2022/08/25 00:11:42;;;;;;;7.17;5.17;;;;;;;;;;6190444;23;20173;-81
2022/08/25 00:14:12;;;;;;;3.40;3.13;;;;;;;;;;6216830;23;20179;-81
2022/08/25 00:16:40;;;;;;;2.10;2.00;;;;;;;;;;6190762;23;20199;-80
2022/08/25 00:19:10;;;;;;;0.97;0.97;;;;;;;;;;6190407;23;20194;-80
2022/08/25 00:21:39;;;;;;;0.80;0.80;;;;;;;;;;6216640;23;20195;-81
2022/08/25 00:24:08;;;;;;;5.00;4.50;;;;;;;;;;6216386;23;20177;-80
2022/08/25 00:26:39;;;;;;;2.23;2.13;;;;;;;;;;6190076;23;20183;-81
2022/08/25 00:29:08;;;;;;;1.83;1.73;;;;;;;;;;6190482;23;20202;-81
2022/08/25 00:31:38;;;;;;;4.20;3.80;;;;;;;;;;6216284;23;20178;-80
2022/08/25 00:34:08;;;;;;;3.87;3.57;;;;;;;;;;6190647;23;20184;-81
2022/08/25 00:36:36;;;;;;;3.87;3.43;;;;;;;;;;6216352;23;20216;-80
2022/08/25 00:39:05;;;;;;;3.47;3.17;;;;;;;;;;6216735;23;20179;-81
2022/08/25 00:41:34;;;;;;;1.43;1.40;;;;;;;;;;6189900;23;20249;-81
2022/08/25 00:44:04;;;;;;;0.40;0.40;;;;;;;;;;6216420;23;20247;-81
2022/08/25 00:46:35;;;;;;;6.20;5.37;;;;;;;;;;6189791;23;20184;-80
2022/08/25 00:49:05;;;;;;;1.10;1.03;;;;;;;;;;6216347;23;20182;-81
2022/08/25 00:51:35;;;;;;;6.40;4.30;;;;;;;;;;6216465;23;20222;-80
2022/08/25 00:54:05;;;;;;;1.03;1.03;;;;;;;;;;6190002;23;20204;-80
2022/08/25 00:56:34;;;;;;;2.03;2.03;;;;;;;;;;6189545;23;20172;-81
2022/08/25 00:59:03;;;;;;;5.93;5.17;;;;;;;;;;6216672;23;20173;-80
2022/08/25 01:01:33;;;;;;;2.07;1.97;;;;;;;;;;6216366;23;20220;-80
2022/08/25 01:04:01;;;;;;;4.87;4.37;;;;;;;;;;6189864;23;20266;-82
2022/08/25 01:06:31;;;;;;;3.23;3.03;;;;;;;;;;6189803;23;20180;-81
2022/08/25 01:09:00;;;;;;;3.07;2.87;;;;;;;;;;6189416;23;20180;-81
2022/08/25 01:11:28;;;;;;;4.83;3.37;;;;;;;;;;6215795;23;20205;-82
2022/08/25 01:13:57;;;;;;;6.43;5.80;;;;;;;;;;6216723;23;20177;-81
2022/08/25 01:16:26;;;;;;;7.57;4.90;;;;;;;;;;6216051;23;20179;-81
2022/08/25 01:18:58;;;;;;;6.97;4.90;;;;;;;;;;6190083;23;20187;-81
2022/08/25 01:21:29;;;;;;;11.30;10.17;;;;;;;;;;6190051;23;20181;-81
2022/08/25 01:23:59;;;;;;;10.20;7.77;;;;;;;;;;6189990;23;20179;-81
2022/08/25 01:26:29;;;;;;;11.57;8.90;;;;;;;;;;6215842;23;20176;-82
2022/08/25 01:31:45;;;;;;;7.60;6.87;;;;;;;;;;6189232;23;20226;-82
2022/08/25 01:34:14;;;;;;;0.70;0.70;;;;;;;;;;6189436;23;20173;-81
2022/08/25 01:36:44;;;;;;;3.20;2.93;;;;;;;;;;6215590;23;20208;-82
2022/08/25 01:39:14;;;;;;;11.80;9.47;;;;;;;;;;6189693;23;20241;-81
2022/08/25 01:41:50;;;;;;;11.37;6.47;;;;;;;;;;6215826;23;20221;-81
2022/08/25 01:44:19;;;;;;;18.70;11.90;;;;;;;;;;6216260;23;20186;-81
2022/08/25 01:46:47;;;;;;;9.03;8.10;;;;;;;;;;6189529;23;20180;-81
2022/08/25 01:49:15;;;;;;;1.33;1.27;;;;;;;;;;6189669;23;20205;-81
2022/08/25 01:51:48;;;;;;;7.43;6.70;;;;;;;;;;6189357;23;20202;-81
2022/08/25 01:54:17;;;;;;;12.83;8.80;;;;;;;;;;6189716;23;20171;-81
2022/08/25 01:56:45;;;;;;;14.20;12.70;;;;;;;;;;6216036;23;20179;-81
2022/08/25 01:59:15;;;;;;;4.83;4.50;;;;;;;;;;6189226;23;20172;-81
2022/08/25 02:01:51;;;;;;;4.40;3.97;;;;;;;;;;6215309;23;20163;-81
2022/08/25 02:04:30;;;;;;;8.47;6.80;;;;;;;;;;6189106;23;20179;-81
2022/08/25 02:07:00;;;;;;;4.13;3.87;;;;;;;;;;6189189;23;20176;-81
2022/08/25 02:09:28;;;;;;;9.80;5.97;;;;;;;;;;6189338;23;20182;-81
2022/08/25 02:11:57;;;;;;;8.13;7.43;;;;;;;;;;6189238;23;20204;-81
2022/08/25 02:14:27;;;;;;;3.90;3.60;;;;;;;;;;6214631;23;20229;-81
2022/08/25 02:16:56;;;;;;;2.50;2.30;;;;;;;;;;6189128;23;20241;-82
2022/08/25 02:19:25;;;;;;;3.63;3.37;;;;;;;;;;6189283;23;20175;-81
2022/08/25 02:21:54;;;;;;;6.60;6.07;;;;;;;;;;6188970;23;20176;-81
2022/08/25 02:24:24;;;;;;;3.27;3.03;;;;;;;;;;6189118;23;20181;-81
2022/08/25 02:26:52;;;;;;;8.67;5.33;;;;;;;;;;6215346;23;20226;-81
2022/08/25 02:29:21;;;;;;;6.23;3.83;;;;;;;;;;6215767;23;20175;-81
2022/08/25 02:31:49;;;;;;;4.90;4.40;;;;;;;;;;6188661;23;20429;-81
2022/08/25 02:34:18;;;;;;;3.50;2.17;;;;;;;;;;6189067;23;20182;-81
2022/08/25 02:36:46;;;;;;;5.00;4.63;;;;;;;;;;6189096;23;20207;-81
2022/08/25 02:39:14;;;;;;;11.33;9.93;;;;;;;;;;6189010;23;20226;-81
2022/08/25 02:41:44;;;;;;;3.50;3.27;;;;;;;;;;6189414;23;20175;-81
2022/08/25 02:44:12;;;;;;;2.93;2.73;;;;;;;;;;6189013;23;20175;-81
2022/08/25 02:46:41;;;;;;;5.13;4.93;;;;;;;;;;6215624;23;20194;-81
2022/08/25 02:49:10;;;;;;;8.53;4.90;;;;;;;;;;6215264;23;20180;-81
2022/08/25 02:51:38;;;;;;;1.73;1.63;;;;;;;;;;6215286;23;20187;-82
2022/08/25 02:54:06;;;;;;;2.23;2.03;;;;;;;;;;6215440;23;20174;-81
2022/08/25 02:56:35;;;;;;;1.80;1.33;;;;;;;;;;6189271;23;20183;-84
2022/08/25 02:59:05;;;;;;;1.60;1.57;;;;;;;;;;6216260;23;20181;-84
2022/08/25 03:01:33;;;;;;;0.90;0.90;;;;;;;;;;6189147;23;20172;-84
2022/08/25 03:04:02;;;;;;;1.13;1.13;;;;;;;;;;6215664;23;20170;-84
2022/08/25 03:06:31;;;;;;;11.10;2.47;;;;;;;;;;6215534;23;20170;-84
2022/08/25 03:09:00;;;;;;;1.73;1.73;;;;;;;;;;6215323;23;20172;-84
2022/08/25 03:11:29;;;;;;;0.37;0.37;;;;;;;;;;6189314;23;20222;-85
2022/08/25 03:13:57;;;;;;;0.30;0.30;;;;;;;;;;6215499;23;20172;-84
2022/08/25 03:16:27;;;;;;;0.53;0.53;;;;;;;;;;6189453;23;20174;-84
2022/08/25 03:18:56;;;;;;;3.00;2.20;;;;;;;;;;6215494;23;20177;-84
2022/08/25 03:21:25;;;;;;;0.40;0.40;;;;;;;;;;6215975;23;20163;-85
2022/08/25 03:23:53;;;;;;;1.33;1.33;;;;;;;;;;6215587;23;20182;-84
2022/08/25 03:29:08;;;;;;;0.90;0.90;;;;;;;;;;6215714;23;20174;-84
2022/08/25 03:31:38;;;;;;;1.40;1.40;;;;;;;;;;6189170;23;20189;-85
2022/08/25 03:34:06;;;;;;;1.00;1.00;;;;;;;;;;6191051;23;20175;-84
2022/08/25 03:36:34;;;;;;;2.37;2.20;;;;;;;;;;6217427;23;20204;-84
2022/08/25 03:39:03;;;;;;;0.60;0.60;;;;;;;;;;6190694;23;20179;-85
2022/08/25 03:41:32;;;;;;;1.63;1.63;;;;;;;;;;6217986;23;20172;-84
2022/08/25 03:44:02;;;;;;;1.50;0.83;;;;;;;;;;6217619;23;20246;-84
2022/08/25 03:46:31;;;;;;;2.23;1.57;;;;;;;;;;6217516;23;20172;-84
2022/08/25 03:49:02;;;;;;;2.40;2.30;;;;;;;;;;6191234;23;20171;-85
2022/08/25 03:51:33;;;;;;;3.57;3.23;;;;;;;;;;6190775;23;20193;-84
2022/08/25 03:54:02;;;;;;;12.37;8.80;;;;;;;;;;6190749;23;20179;-85
2022/08/25 03:56:30;;;;;;;5.20;3.63;;;;;;;;;;6216978;23;20175;-84
2022/08/25 03:58:59;;;;;;;2.43;2.27;;;;;;;;;;6217267;23;20173;-84
2022/08/25 04:01:28;;;;;;;9.77;7.70;;;;;;;;;;6191095;23;20180;-85
2022/08/25 04:03:56;;;;;;;2.27;2.17;;;;;;;;;;6191111;23;20185;-85
2022/08/25 04:06:26;;;;;;;10.17;8.93;;;;;;;;;;6190909;23;20180;-85
2022/08/25 04:08:54;;;;;;;7.20;6.60;;;;;;;;;;6190908;23;20174;-85
2022/08/25 04:11:23;;;;;;;26.77;17.87;;;;;;;;;;6190728;23;20203;-85
2022/08/25 04:13:52;;;;;;;12.07;5.73;;;;;;;;;;6217169;23;20176;-85
2022/08/25 04:16:23;;;;;;;10.97;8.57;;;;;;;;;;6217042;23;20180;-85
2022/08/25 04:18:53;;;;;;;14.87;13.23;;;;;;;;;;6217082;23;20249;-85
2022/08/25 04:21:22;;;;;;;14.53;12.93;;;;;;;;;;6190684;23;20170;-85
2022/08/25 04:23:53;;;;;;;8.20;7.50;;;;;;;;;;6217012;23;20179;-85
2022/08/25 04:26:22;;;;;;;6.93;4.90;;;;;;;;;;6190721;23;20204;-85
2022/08/25 04:28:51;;;;;;;5.73;5.27;;;;;;;;;;6216726;23;20174;-85
2022/08/25 04:31:21;;;;;;;42.50;15.23;;;;;;;;;;6190662;23;20264;-85
2022/08/25 04:33:50;;;;;;;14.97;13.53;;;;;;;;;;6216704;23;20170;-85
2022/08/25 04:36:19;;;;;;;1.67;1.57;;;;;;;;;;6190576;23;20213;-85
2022/08/25 04:38:48;;;;;;;3.03;1.77;;;;;;;;;;6190639;23;20177;-85
2022/08/25 04:41:19;;;;;;;2.23;1.50;;;;;;;;;;6216387;23;20167;-85
2022/08/25 04:43:47;;;;;;;7.43;4.63;;;;;;;;;;6189871;23;20185;-85
2022/08/25 04:46:17;;;;;;;0.87;0.87;;;;;;;;;;6216686;23;20173;-85
2022/08/25 04:48:48;;;;;;;2.37;2.17;;;;;;;;;;6190255;23;20239;-85
2022/08/25 04:51:17;;;;;;;1.93;1.83;;;;;;;;;;6190485;23;20187;-85
2022/08/25 04:53:46;;;;;;;1.60;1.37;;;;;;;;;;6190646;23;20199;-85
2022/08/25 04:56:16;;;;;;;4.83;1.80;;;;;;;;;;6190053;23;20178;-85
2022/08/25 04:58:46;;;;;;;4.20;2.13;;;;;;;;;;6216995;23;20180;-85
2022/08/25 05:01:16;;;;;;;4.23;3.80;;;;;;;;;;6216694;23;20182;-85
2022/08/25 05:03:45;;;;;;;2.63;2.47;;;;;;;;;;6190246;23;20185;-85
2022/08/25 05:06:14;;;;;;;2.10;2.00;;;;;;;;;;6190066;23;20226;-85
2022/08/25 05:08:44;;;;;;;1.70;1.60;;;;;;;;;;6216333;23;20175;-85
2022/08/25 05:11:16;;;;;;;4.37;3.53;;;;;;;;;;6190018;23;20175;-85
2022/08/25 05:13:46;;;;;;;2.63;2.43;;;;;;;;;;6190045;23;20205;-85
2022/08/25 05:16:19;;;;;;;1.50;1.43;;;;;;;;;;6216741;23;20166;-85
2022/08/25 05:18:48;;;;;;;2.50;2.30;;;;;;;;;;6189818;23;20240;-85
2022/08/25 05:21:17;;;;;;;3.77;3.43;;;;;;;;;;6216572;23;20185;-85
2022/08/25 05:23:46;;;;;;;1.73;1.17;;;;;;;;;;6189838;23;20174;-85
2022/08/25 05:26:16;;;;;;;2.23;1.53;;;;;;;;;;6190052;23;20248;-85
2022/08/25 05:28:49;;;;;;;0.70;0.70;;;;;;;;;;6189918;23;20184;-85
2022/08/25 05:31:18;;;;;;;4.40;4.03;;;;;;;;;;6216310;23;20181;-85
2022/08/25 05:33:47;;;;;;;1.63;1.53;;;;;;;;;;6189756;23;20242;-85
2022/08/25 05:36:16;;;;;;;1.37;1.37;;;;;;;;;;6189768;23;20212;-85
2022/08/25 05:38:44;;;;;;;1.70;1.60;;;;;;;;;;6190565;23;20176;-85
2022/08/25 05:41:14;;;;;;;1.90;1.80;;;;;;;;;;6190134;23;20178;-85
2022/08/25 05:43:44;;;;;;;4.50;2.57;;;;;;;;;;6190214;23;20179;-85
2022/08/25 05:46:14;;;;;;;4.30;2.83;;;;;;;;;;6190043;23;20190;-85
2022/08/25 05:48:42;;;;;;;4.17;2.87;;;;;;;;;;6216346;23;20189;-85
2022/08/25 05:51:13;;;;;;;3.63;2.93;;;;;;;;;;6190438;23;20246;-85
2022/08/25 05:53:42;;;;;;;3.53;2.40;;;;;;;;;;6190330;23;20196;-85
2022/08/25 05:56:12;;;;;;;6.43;3.30;;;;;;;;;;6190122;23;20176;-85
2022/08/25 05:58:41;;;;;;;3.83;3.40;;;;;;;;;;6190045;23;20243;-85
2022/08/25 06:03:58;;;;;;;0.90;0.90;;;;;;;;;;6185870;23;20211;-83
2022/08/25 06:06:28;;;;;;;2.73;2.53;;;;;;;;;;6188254;23;20180;-85
2022/08/25 06:08:56;;;;;;;2.23;2.00;;;;;;;;;;6188387;23;20176;-85
2022/08/25 06:11:24;;;;;;;1.70;1.60;;;;;;;;;;6216068;23;20180;-85
2022/08/25 06:13:53;;;;;;;1.87;1.77;;;;;;;;;;6189684;23;20200;-85
2022/08/25 06:16:21;;;;;;;0.70;0.70;;;;;;;;;;6216043;23;20173;-84
2022/08/25 06:18:50;;;;;;;0.40;0.40;;;;;;;;;;6189377;23;20177;-84
2022/08/25 06:21:20;;;;;;;37.10;5.03;;;;;;;;;;6189398;23;20186;-85
2022/08/25 06:23:49;;;;;;;4.63;2.77;;;;;;;;;;6188857;23;20175;-84
2022/08/25 06:26:20;;;;;;;0.40;0.40;;;;;;;;;;6189419;23;20212;-84
2022/08/25 06:28:49;;;;;;;0.43;0.43;;;;;;;;;;6213795;23;20170;-84
2022/08/25 06:31:18;;;;;;;0.80;0.80;;;;;;;;;;6188230;23;20181;-84
2022/08/25 06:33:46;;;;;;;0.60;0.60;;;;;;;;;;6215517;23;20201;-85
2022/08/25 06:36:17;;;;;;;1.70;1.60;;;;;;;;;;6214609;23;20204;-85
2022/08/25 06:38:48;;;;;;;9.00;4.83;;;;;;;;;;6189344;23;20177;-85
2022/08/25 06:41:16;;;;;;;3.57;3.03;;;;;;;;;;6188501;23;20182;-85
2022/08/25 06:43:44;;;;;;;1.70;1.60;;;;;;;;;;6189133;23;20173;-85
2022/08/25 06:46:20;;;;;;;4.57;3.90;;;;;;;;;;6190059;23;20174;-85
2022/08/25 06:48:49;;;;;;;2.43;2.27;;;;;;;;;;6189244;23;20247;-85
2022/08/25 06:51:18;;;;;;;2.00;1.90;;;;;;;;;;6189406;23;20198;-85
2022/08/25 06:53:49;;;;;;;5.23;4.73;;;;;;;;;;6216315;23;20194;-84
2022/08/25 06:56:18;;;;;;;1.27;1.27;;;;;;;;;;6189698;23;20174;-85
2022/08/25 06:58:47;;;;;;;3.93;3.03;;;;;;;;;;6190199;23;20252;-85
2022/08/25 07:01:18;;;;;;;1.70;1.60;;;;;;;;;;6215993;23;20170;-85
2022/08/25 07:03:48;;;;;;;3.47;2.43;;;;;;;;;;6190171;23;20171;-85
2022/08/25 07:06:19;;;;;;;1.50;1.40;;;;;;;;;;6189733;23;20178;-85
2022/08/25 07:08:49;;;;;;;5.67;2.93;;;;;;;;;;6191686;23;20176;-84
2022/08/25 07:11:19;;;;;;;3.30;1.23;;;;;;;;;;6192251;23;20181;-85
2022/08/25 07:13:48;;;;;;;4.10;1.73;;;;;;;;;;6192326;23;20193;-85
2022/08/25 07:16:17;;;;;;;0.77;0.77;;;;;;;;;;6192276;23;20298;-85
2022/08/25 07:18:47;;;;;;;2.17;2.07;;;;;;;;;;6192264;23;20176;-85
2022/08/25 07:21:16;;;;;;;2.30;2.10;;;;;;;;;;6191642;23;20229;-85
2022/08/25 07:23:51;;;;;;;4.27;2.87;;;;;;;;;;6191905;23;20179;-85
2022/08/25 07:26:21;;;;;;;1.83;1.73;;;;;;;;;;6218094;23;20224;-85
2022/08/25 07:29:05;;;;;;;8.23;2.93;;;;;;;;;;6218224;23;20169;-85
2022/08/25 07:31:34;;;;;;;7.17;3.13;;;;;;;;;;6218644;23;20178;-85
2022/08/25 07:36:53;;;;;;;4.13;2.80;;;;;;;;;;6218139;23;20235;-85
2022/08/25 07:39:24;;;;;;;4.87;2.83;;;;;;;;;;6192085;23;20207;-85
2022/08/25 07:41:53;;;;;;;4.83;2.60;;;;;;;;;;6191747;23;20248;-85
2022/08/25 07:44:23;;;;;;;3.30;3.00;;;;;;;;;;6191766;23;20214;-85
2022/08/25 07:46:55;;;;;;;1.43;1.33;;;;;;;;;;6192051;23;20177;-85
2022/08/25 07:49:24;;;;;;;3.17;2.57;;;;;;;;;;6218280;23;20173;-85
2022/08/25 07:51:53;;;;;;;9.33;1.97;;;;;;;;;;6191784;23;20181;-85
2022/08/25 07:54:35;;;;;;;5.43;3.07;;;;;;;;;;6192245;23;20189;-85
2022/08/25 07:57:06;;;;;;;3.20;0.70;;;;;;;;;;6191868;23;20189;-85
2022/08/25 07:59:34;;;;;;;4.67;2.03;;;;;;;;;;6191584;23;20180;-85
2022/08/25 08:02:08;;;;;;;3.10;2.80;;;;;;;;;;6192022;23;20181;-85
2022/08/25 08:04:47;;;;;;;8.47;2.57;;;;;;;;;;6191420;23;20174;-85
2022/08/25 08:07:17;;;;;;;4.70;2.77;;;;;;;;;;6192254;23;20244;-85
2022/08/25 08:09:47;;;;;;;2.10;1.90;;;;;;;;;;6191692;23;20231;-85
2022/08/25 08:12:27;;;;;;;2.63;1.87;;;;;;;;;;6217894;23;20166;-84
2022/08/25 08:14:56;;;;;;;2.40;2.20;;;;;;;;;;6218108;23;20196;-83
2022/08/25 08:17:25;;;;;;;2.80;1.70;;;;;;;;;;6191610;23;20174;-85
2022/08/25 08:19:53;;;;;;;4.90;2.13;;;;;;;;;;6192095;23;20185;-84
2022/08/25 08:22:22;;;;;;;2.20;1.93;;;;;;;;;;6192073;23;20253;-85
2022/08/25 08:24:51;;;;;;;4.20;2.63;;;;;;;;;;6218333;23;20202;-84
2022/08/25 08:27:23;;;;;;;3.17;2.27;;;;;;;;;;6218214;23;20241;-85
2022/08/25 08:29:52;;;;;;;4.63;2.97;;;;;;;;;;6218871;23;20173;-86
2022/08/25 08:32:21;;;;;;;9.60;2.00;;;;;;;;;;6191861;23;20183;-85
2022/08/25 08:34:58;;;;;;;1.77;1.67;;;;;;;;;;6192395;23;20236;-85
2022/08/25 08:37:27;;;;;;;4.33;1.57;;;;;;;;;;6191271;23;20183;-85
2022/08/25 08:40:00;;;;;;;2.13;1.93;;;;;;;;;;6192042;23;20175;-85
2022/08/25 08:42:49;;;;;;;4.23;2.10;;;;;;;;;;6191982;23;20182;-85
2022/08/25 08:45:25;;;;;;;2.23;1.77;;;;;;;;;;6191495;23;20197;-85
2022/08/25 08:48:03;;;;;;;1.37;1.20;;;;;;;;;;6190897;23;20181;-84
2022/08/25 08:50:40;;;;;;;2.17;2.07;;;;;;;;;;6190517;23;20190;-85
2022/08/25 08:53:10;;;;;;;2.57;1.37;;;;;;;;;;6217834;23;20178;-85
2022/08/25 08:55:43;;;;;;;5.33;2.23;;;;;;;;;;6191084;23;20200;-85
2022/08/25 08:58:26;;;;;;;5.83;2.37;;;;;;;;;;6218069;23;20249;-85
2022/08/25 09:00:57;;;;;;;3.03;2.10;;;;;;;;;;6191901;23;20177;-84
2022/08/25 09:03:34;;;;;;;1.70;1.60;;;;;;;;;;6194154;23;20181;-83
2022/08/25 09:06:06;;;;;;;2.53;2.17;;;;;;;;;;6194150;23;20232;-84
2022/08/25 09:08:35;;;;;;;0.33;0.33;;;;;;;;;;6194089;23;20177;-84
2022/08/25 09:11:10;;;;;;;4.23;2.20;;;;;;;;;;6193616;23;20180;-84
2022/08/25 09:13:52;;;;;;;4.33;2.73;;;;;;;;;;6194449;23;20197;-84
2022/08/25 09:19:19;;;;;;;3.53;2.17;;;;;;;;;;6194237;23;20272;-84
2022/08/25 09:21:55;;;;;;;9.70;2.60;;;;;;;;;;6193934;23;20185;-85
2022/08/25 09:24:31;;;;;;;5.67;2.57;;;;;;;;;;6224319;23;20174;-85
2022/08/25 09:27:07;;;;;;;2.97;2.07;;;;;;;;;;6196388;23;20215;-84
2022/08/25 09:29:41;;;;;;;1.77;1.67;;;;;;;;;;6220306;23;20200;-84
2022/08/25 09:32:11;;;;;;;2.10;1.90;;;;;;;;;;6197434;23;20228;-84
2022/08/25 09:34:42;;;;;;;1.37;1.27;;;;;;;;;;6199146;23;20220;-84
2022/08/25 09:37:15;;;;;;;3.90;2.37;;;;;;;;;;6223042;23;20255;-84
2022/08/25 09:39:44;;;;;;;4.23;2.63;;;;;;;;;;6195192;23;20241;-84
2022/08/25 09:42:15;;;;;;;2.63;2.03;;;;;;;;;;6195606;23;20178;-84
2022/08/25 09:44:54;;;;;;;3.00;1.40;;;;;;;;;;6195492;23;20174;-84
2022/08/25 09:47:30;;;;;;;1.30;1.30;;;;;;;;;;6195404;23;20174;-84
2022/08/25 09:50:06;;;;;;;3.40;2.27;;;;;;;;;;6195396;23;20174;-85
2022/08/25 09:52:51;;;;;;;0.80;0.80;;;;;;;;;;6196456;23;20185;-85
2022/08/25 09:55:33;;;;;;;5.33;2.90;;;;;;;;;;6197140;23;20197;-85
2022/08/25 09:58:14;;;;;;;2.83;2.20;;;;;;;;;;6197139;23;20208;-84
2022/08/25 10:01:03;;;;;;;4.23;2.37;;;;;;;;;;6196715;23;20181;-83
2022/08/25 10:03:33;;;;;;;0.30;0.30;;;;;;;;;;6198153;23;20174;-84
2022/08/25 10:06:06;;;;;;;8.43;3.33;;;;;;;;;;6194318;23;20257;-84
2022/08/25 10:08:54;;;;;;;5.67;2.07;;;;;;;;;;6194312;23;20277;-84
2022/08/25 10:11:39;;;;;;;5.90;3.73;;;;;;;;;;6196615;23;20175;-84
2022/08/25 10:14:16;;;;;;;3.77;2.10;;;;;;;;;;6196417;23;20182;-84
2022/08/25 10:16:47;;;;;;;3.10;1.57;;;;;;;;;;6196315;23;20174;-84
2022/08/25 10:19:30;;;;;;;2.07;1.87;;;;;;;;;;6194888;23;20246;-84
2022/08/25 10:22:04;;;;;;;4.17;2.90;;;;;;;;;;6196055;23;20185;-84
2022/08/25 10:24:42;;;;;;;1.93;1.83;;;;;;;;;;6194179;23;20228;-84
2022/08/25 10:27:35;;;;;;;3.67;2.03;;;;;;;;;;6194447;23;20174;-84
2022/08/25 10:30:12;;;;;;;3.10;2.80;;;;;;;;;;6195338;23;20178;-84
2022/08/25 10:33:03;;;;;;;0.90;0.90;;;;;;;;;;6195284;23;20200;-84
2022/08/25 10:35:35;;;;;;;2.67;2.07;;;;;;;;;;6195199;23;20290;-84
2022/08/25 10:38:09;;;;;;;3.93;2.87;;;;;;;;;;6195637;23;20174;-84
2022/08/25 10:40:44;;;;;;;2.77;2.53;;;;;;;;;;6190221;23;20245;-85
2022/08/25 10:43:18;;;;;;;4.50;2.37;;;;;;;;;;6192183;23;20184;-85
2022/08/25 10:46:02;;;;;;;3.63;2.70;;;;;;;;;;6192188;23;20174;-85
2022/08/25 10:48:48;;;;;;;2.23;1.40;;;;;;;;;;6191875;23;20174;-86
2022/08/25 10:51:35;;;;;;;3.93;1.93;;;;;;;;;;6192148;23;20173;-86
2022/08/25 10:54:07;;;;;;;2.70;1.33;;;;;;;;;;6191424;23;20174;-85
2022/08/25 10:56:40;;;;;;;4.40;2.67;;;;;;;;;;6192324;23;20190;-85
2022/08/25 10:59:17;;;;;;;6.70;2.77;;;;;;;;;;6192344;23;20224;-85
2022/08/25 11:01:55;;;;;;;3.73;2.50;;;;;;;;;;6191495;23;20174;-85
2022/08/25 11:04:26;;;;;;;1.30;1.10;;;;;;;;;;6191612;23;20175;-85
2022/08/25 11:06:58;;;;;;;4.03;2.73;;;;;;;;;;6191881;23;20182;-85
2022/08/25 11:09:29;;;;;;;2.50;1.97;;;;;;;;;;6192411;23;20182;-85
2022/08/25 11:12:00;;;;;;;1.27;1.00;;;;;;;;;;6192101;23;20209;-85
2022/08/25 11:14:32;;;;;;;2.33;1.80;;;;;;;;;;6191965;23;20242;-85
2022/08/25 11:17:05;;;;;;;1.67;1.57;;;;;;;;;;6191973;23;20174;-85
2022/08/25 11:19:38;;;;;;;4.33;1.70;;;;;;;;;;6192049;23;20197;-83
2022/08/25 11:22:26;;;;;;;8.13;3.13;;;;;;;;;;6192253;23;20180;-85
2022/08/25 11:25:08;;;;;;;1.93;1.77;;;;;;;;;;6192315;23;20177;-85
2022/08/25 11:27:49;;;;;;;2.73;1.67;;;;;;;;;;6191280;23;20174;-84
2022/08/25 11:30:25;;;;;;;0.77;0.77;;;;;;;;;;6191827;23;20175;-84
2022/08/25 11:33:20;;;;;;;2.87;2.07;;;;;;;;;;6195343;23;20178;-84
2022/08/25 11:35:54;;;;;;;2.60;2.40;;;;;;;;;;6191086;23;20242;-85
2022/08/25 11:38:42;;;;;;;6.50;2.47;;;;;;;;;;6191178;23;20205;-84
2022/08/25 11:41:42;;;;;;;3.57;3.03;;;;;;;;;;6193243;23;20174;-85
2022/08/25 11:44:27;;;;;;;2.63;2.43;;;;;;;;;;6192867;23;20225;-83
2022/08/25 11:47:04;;;;;;;4.00;2.63;;;;;;;;;;6191559;23;20181;-84
2022/08/25 11:49:49;;;;;;;3.23;2.10;;;;;;;;;;6192108;23;20174;-85
2022/08/25 11:52:37;;;;;;;4.97;2.63;;;;;;;;;;6192751;23;20178;-85
2022/08/25 11:55:12;;;;;;;1.10;0.97;;;;;;;;;;6191460;23;20319;-85
2022/08/25 11:57:41;;;;;;;7.00;3.27;;;;;;;;;;6193840;23;20188;-85
2022/08/25 12:00:13;;;;;;;4.73;2.83;;;;;;;;;;6192519;23;20178;-85
2022/08/25 12:02:44;;;;;;;3.00;1.93;;;;;;;;;;6192598;23;20180;-86
2022/08/25 12:05:39;;;;;;;2.07;1.87;;;;;;;;;;6194043;23;20198;-86
2022/08/25 12:11:00;;;;;;;4.43;3.00;;;;;;;;;;6193131;23;20178;-86
2022/08/25 12:13:47;;;;;;;5.57;2.93;;;;;;;;;;6194950;23;20178;-86
2022/08/25 12:16:52;;;;;;;6.43;2.40;;;;;;;;;;6194216;23;20217;-86
2022/08/25 12:19:58;;;;;;;2.97;2.60;;;;;;;;;;6072307;23;20189;-86
2022/08/25 12:22:50;;;;;;;1.57;1.47;;;;;;;;;;6190161;23;20182;-85
2022/08/25 12:25:41;;;;;;;2.70;2.50;;;;;;;;;;6189551;23;20186;-85
2022/08/25 12:28:21;;;;;;;2.40;2.20;;;;;;;;;;6172622;23;20182;-84
2022/08/25 12:30:58;;;;;;;1.40;0.80;;;;;;;;;;6184822;23;20182;-84
2022/08/25 12:33:42;;;;;;;2.63;1.67;;;;;;;;;;6190578;23;20279;-84
2022/08/25 12:36:31;;;;;;;2.53;1.93;;;;;;;;;;6189636;23;20210;-83
2022/08/25 12:39:33;;;;;;;2.50;2.30;;;;;;;;;;6188483;23;20206;-84
2022/08/25 12:42:06;;;;;;;1.47;1.37;;;;;;;;;;6189313;23;20220;-84
2022/08/25 12:44:45;;;;;;;3.93;2.63;;;;;;;;;;6188846;23;20177;-83
2022/08/25 12:47:30;;;;;;;2.53;2.33;;;;;;;;;;6184561;23;20170;-84
2022/08/25 12:50:24;;;;;;;3.80;2.27;;;;;;;;;;6189987;23;20185;-84
2022/08/25 12:53:03;;;;;;;3.20;2.67;;;;;;;;;;6189648;23;20225;-83
2022/08/25 12:55:41;;;;;;;5.10;3.33;;;;;;;;;;6190215;23;20181;-83
2022/08/25 12:58:12;;;;;;;1.50;1.40;;;;;;;;;;6189885;23;20189;-84
2022/08/25 13:00:55;;;;;;;3.23;2.90;;;;;;;;;;6190684;23;20179;-83
2022/08/25 13:04:02;;;;;;;5.63;4.20;;;;;;;;;;6189463;23;20265;-84
2022/08/25 13:06:45;;;;;;;3.87;2.23;;;;;;;;;;6070868;23;20186;-83
2022/08/25 13:09:25;;;;;;;3.10;1.90;;;;;;;;;;6072615;23;20208;-84
2022/08/25 13:12:02;;;;;;;1.00;0.83;;;;;;;;;;6149964;23;20182;-84
2022/08/25 13:14:52;;;;;;;2.33;1.60;;;;;;;;;;6188914;23;20178;-83
2022/08/25 13:18:16;;;;;;;10.10;3.50;;;;;;;;;;6187950;23;20183;-84
2022/08/25 13:20:46;;;;;;;3.70;3.33;;;;;;;;;;6189037;23;20240;-84
2022/08/25 13:23:28;;;;;;;3.77;3.47;;;;;;;;;;6188930;23;20185;-85
2022/08/25 13:26:09;;;;;;;;;;;;;;;;;;;;;
2022/08/25 13:28:41;;;;;;;11.07;4.50;;;;;;;;;;6186445;23;20285;-84
2022/08/25 13:31:20;;;;;;;4.67;3.83;;;;;;;;;;6188955;23;20197;-83
2022/08/25 13:33:53;;;;;;;6.60;2.70;;;;;;;;;;6187772;23;20178;-83
2022/08/25 13:39:44;;;;;;;5.60;4.10;;;;;;;;;;6158255;23;20233;-84
2022/08/25 13:42:26;;;;;;;5.20;3.43;;;;;;;;;;6158156;23;20178;-84
2022/08/25 13:45:01;;;;;;;4.27;2.47;;;;;;;;;;6158600;23;20178;-84
2022/08/25 13:47:39;;;;;;;7.77;6.07;;;;;;;;;;6158842;23;20174;-85
2022/08/25 13:50:20;;;;;;;1.20;1.07;;;;;;;;;;6158822;23;20182;-84
2022/08/25 13:52:54;;;;;;;7.10;4.97;;;;;;;;;;6158187;23;20178;-84
2022/08/25 13:55:36;;;;;;;6.87;5.20;;;;;;;;;;6159874;23;20174;-84
2022/08/25 13:58:23;;;;;;;9.67;5.37;;;;;;;;;;6186031;23;20242;-84
2022/08/25 14:01:14;;;;;;;12.00;8.77;;;;;;;;;;6159801;23;20198;-84
2022/08/25 14:04:24;;;;;;;6.27;4.20;;;;;;;;;;6159791;23;20179;-84
2022/08/25 14:09:53;;;;;;;3.97;3.43;;;;;;;;;;6180021;23;20198;-84
2022/08/25 14:12:35;;;;;;;4.93;3.70;;;;;;;;;;6159539;23;20182;-84
2022/08/25 14:15:30;;;;;;;7.33;5.50;;;;;;;;;;6159099;23;20198;-84
2022/08/25 14:18:10;;;;;;;4.17;3.77;;;;;;;;;;6159595;23;20195;-83
2022/08/25 14:20:47;;;;;;;3.10;2.87;;;;;;;;;;6159673;23;20174;-84
2022/08/25 14:23:19;;;;;;;7.27;5.00;;;;;;;;;;6159359;23;20253;-84
2022/08/25 14:25:54;;;;;;;4.87;4.37;;;;;;;;;;6159665;23;20266;-83
2022/08/25 14:28:34;;;;;;;3.10;2.30;;;;;;;;;;6159717;23;20179;-84
2022/08/25 14:31:16;;;;;;;8.33;5.50;;;;;;;;;;6159556;23;20178;-84
2022/08/25 14:34:05;;;;;;;3.73;2.30;;;;;;;;;;6159674;23;20179;-84
2022/08/25 14:36:43;;;;;;;8.73;6.77;;;;;;;;;;6158713;23;20213;-84
2022/08/25 14:39:30;;;;;;;10.57;8.33;;;;;;;;;;6159509;23;20182;-84
2022/08/25 14:41:59;;;;;;;4.90;4.50;;;;;;;;;;6159551;23;20201;-84
2022/08/25 14:44:28;;;;;;;7.70;6.27;;;;;;;;;;6159039;23;20179;-84
2022/08/25 14:46:58;;;;;;;8.63;5.53;;;;;;;;;;6159479;23;20174;-84
2022/08/25 14:49:37;;;;;;;6.67;6.03;;;;;;;;;;6159417;23;20182;-84
2022/08/25 14:52:10;;;;;;;6.43;5.83;;;;;;;;;;6159526;23;20265;-84
2022/08/25 14:54:41;;;;;;;7.60;5.97;;;;;;;;;;6159284;23;20174;-84
2022/08/25 14:57:10;;;;;;;4.73;2.90;;;;;;;;;;6159381;23;20213;-84
2022/08/25 14:59:41;;;;;;;3.47;2.83;;;;;;;;;;6158810;23;20175;-84
2022/08/25 15:02:17;;;;;;;15.20;12.93;;;;;;;;;;6159498;23;20266;-84
2022/08/25 15:05:04;;;;;;;14.80;13.30;;;;;;;;;;6159520;23;20179;-84
2022/08/25 15:10:28;;;;;;;15.93;13.60;;;;;;;;;;6159551;23;20207;-83
2022/08/25 15:12:57;;;;;;;18.27;13.60;;;;;;;;;;6159272;23;20248;-84
2022/08/25 15:15:27;;;;;;;17.87;15.83;;;;;;;;;;6159524;23;20175;-84
2022/08/25 15:18:00;;;;;;;13.17;11.23;;;;;;;;;;6159177;23;20202;-84
2022/08/25 15:20:34;;;;;;;11.97;10.77;;;;;;;;;;6158001;23;20179;-84
2022/08/25 15:23:04;;;;;;;15.43;13.83;;;;;;;;;;6158779;23;20175;-84
2022/08/25 15:25:33;;;;;;;12.83;10.43;;;;;;;;;;6158719;23;20278;-83
2022/08/25 15:28:04;;;;;;;20.70;18.10;;;;;;;;;;6160194;23;20185;-83
2022/08/25 15:30:37;;;;;;;14.23;12.03;;;;;;;;;;6160598;23;20210;-83
2022/08/25 15:33:09;;;;;;;19.47;15.73;;;;;;;;;;6161113;23;20179;-84
2022/08/25 15:35:39;;;;;;;15.63;11.67;;;;;;;;;;6162906;23;20231;-84
2022/08/25 15:38:08;;;;;;;11.63;9.50;;;;;;;;;;6191272;23;20190;-83
2022/08/25 15:40:38;;;;;;;7.57;6.70;;;;;;;;;;6190658;23;20185;-84
2022/08/25 15:43:07;;;;;;;15.97;12.97;;;;;;;;;;6190596;23;20265;-83
2022/08/25 15:45:36;;;;;;;19.80;17.10;;;;;;;;;;6190869;23;20183;-83